Fort Richardson, Alaska
Current Conditions -  °F | °C
As of 5:58 PM on Monday 26 Jan 2015 (Local Time) from PAED Reporting Station
Overcast Overcast  
Wind Chill: -1°   Ceiling: 12000
Heat Index: -1°   Visibility: 10mi
Dew Point: -6°   Wind: 1mph
Humidity: 81%   Direction: 70°ENE
Pressure: 30"   Gusts: NA
Location:  61.25°N, 149.69°W
Report Text: PAED 270258Z AUTO 07001KT 10SM SCT080 OVC120 M18/M21 A3000 RMK AO2 SLP160 T11851210 55007
Loading
Personal Weather Stations






























Interactive Weather Map New forecast layout! Learn more

10-Day Weather Forecast

Advertisements
Track Severe Weather on mobile